createdAt,value
2023-05-05T00:00:27.571Z,64.51
2023-05-05T00:01:27.558Z,64.33
2023-05-05T00:02:27.692Z,64.26
2023-05-05T00:03:27.681Z,64.22
2023-05-05T00:04:27.587Z,64.22
2023-05-05T00:05:27.593Z,64.01
2023-05-05T00:06:27.606Z,63.92
2023-05-05T00:07:27.619Z,63.86
2023-05-05T00:08:27.604Z,63.75
2023-05-05T00:09:27.627Z,63.67
2023-05-05T00:10:27.631Z,63.58
2023-05-05T00:11:27.723Z,63.67
2023-05-05T00:12:27.769Z,63.61
2023-05-05T00:13:27.836Z,63.87
2023-05-05T00:14:27.888Z,64.15
2023-05-05T00:15:27.958Z,64.20
2023-05-05T00:16:28.088Z,64.06
2023-05-05T00:17:28.113Z,64.02
2023-05-05T00:18:28.191Z,63.93
2023-05-05T00:19:28.222Z,63.81
2023-05-05T00:20:28.277Z,63.81
2023-05-05T00:21:28.354Z,63.83
2023-05-05T00:22:28.403Z,63.98
2023-05-05T00:23:28.468Z,64.09
2023-05-05T00:24:28.512Z,63.93
2023-05-05T00:25:28.585Z,63.95
2023-05-05T00:26:28.645Z,64.10
2023-05-05T00:27:28.725Z,64.16
2023-05-05T00:28:28.778Z,64.50
2023-05-05T00:29:29.205Z,64.60
2023-05-05T00:30:28.889Z,64.69
2023-05-05T00:31:29.014Z,64.65
2023-05-05T00:32:29.031Z,64.62
2023-05-05T00:33:29.087Z,64.51
2023-05-05T00:34:29.141Z,64.45
2023-05-05T00:35:29.214Z,64.45
2023-05-05T00:36:29.307Z,64.40
2023-05-05T00:37:29.342Z,64.34
2023-05-05T00:38:29.403Z,64.42
2023-05-05T00:39:29.471Z,64.26
2023-05-05T00:40:29.537Z,64.27
2023-05-05T00:41:29.666Z,64.42
2023-05-05T00:42:29.640Z,64.59
2023-05-05T00:43:29.796Z,64.59
2023-05-05T00:44:29.811Z,64.43
2023-05-05T00:45:29.817Z,64.45
2023-05-05T00:46:29.943Z,64.58
2023-05-05T00:47:29.918Z,64.75
2023-05-05T00:48:29.912Z,64.79
2023-05-05T00:49:30.026Z,64.86
2023-05-05T00:50:29.981Z,65.19
2023-05-05T00:51:30.045Z,65.30
2023-05-05T00:52:30.106Z,65.31
2023-05-05T00:53:30.164Z,65.14
2023-05-05T00:54:30.232Z,65.19
2023-05-05T00:55:30.261Z,65.14
2023-05-05T00:56:30.288Z,65.07
2023-05-05T00:57:30.351Z,65.05
2023-05-05T00:58:30.424Z,65.13
2023-05-05T00:59:30.525Z,65.19
2023-05-05T01:00:30.569Z,65.16
2023-05-05T01:01:30.703Z,64.99
2023-05-05T01:02:30.975Z,64.78
2023-05-05T01:03:30.886Z,64.62
2023-05-05T01:04:30.871Z,64.49
2023-05-05T01:05:30.935Z,64.36
2023-05-05T01:06:30.884Z,64.39
2023-05-05T01:07:30.834Z,64.25
2023-05-05T01:08:30.899Z,64.28
2023-05-05T01:09:30.889Z,64.29
2023-05-05T01:10:30.924Z,64.25
2023-05-05T01:11:30.965Z,64.23
2023-05-05T01:12:31.056Z,64.15
2023-05-05T01:13:31.072Z,64.29
2023-05-05T01:14:31.086Z,64.23
2023-05-05T01:15:31.162Z,64.16
2023-05-05T01:16:31.226Z,64.21
2023-05-05T01:17:31.348Z,64.59
2023-05-05T01:18:31.313Z,64.65
2023-05-05T01:19:31.390Z,64.64
2023-05-05T01:20:31.477Z,64.67
2023-05-05T01:21:31.534Z,64.76
2023-05-05T01:22:31.719Z,64.96
2023-05-05T01:23:30.705Z,64.90
2023-05-05T01:24:31.768Z,64.75
2023-05-05T01:25:31.874Z,64.77
2023-05-05T01:26:31.897Z,64.68
2023-05-05T01:27:31.956Z,64.80
2023-05-05T01:28:32.008Z,65.06
2023-05-05T01:29:32.049Z,65.17
2023-05-05T01:30:32.084Z,65.19
2023-05-05T01:31:32.149Z,65.16
2023-05-05T01:32:32.190Z,65.20
2023-05-05T01:33:32.115Z,65.36
2023-05-05T01:34:32.142Z,65.32
2023-05-05T01:35:32.180Z,65.27
2023-05-05T01:36:32.193Z,65.27
2023-05-05T01:37:32.212Z,65.23
2023-05-05T01:38:32.227Z,65.11
2023-05-05T01:39:32.231Z,65.03
2023-05-05T01:40:32.283Z,65.04
2023-05-05T01:41:32.282Z,65.12
2023-05-05T01:42:32.339Z,65.00
2023-05-05T01:43:32.329Z,64.89
2023-05-05T01:44:32.351Z,64.81
2023-05-05T01:45:32.445Z,64.70
2023-05-05T01:46:32.403Z,64.67
2023-05-05T01:47:32.509Z,64.79
2023-05-05T01:48:32.452Z,65.06
2023-05-05T01:49:32.492Z,65.18
2023-05-05T01:50:32.539Z,65.15
2023-05-05T01:51:32.570Z,65.18
2023-05-05T01:52:32.595Z,65.16
2023-05-05T01:53:32.649Z,64.99
2023-05-05T01:54:32.662Z,65.09
2023-05-05T01:55:32.672Z,65.13
2023-05-05T01:56:32.744Z,65.20
2023-05-05T01:57:33.598Z,65.40
2023-05-05T01:58:32.781Z,65.78
2023-05-05T01:59:32.835Z,66.04
2023-05-05T02:00:32.890Z,66.17
2023-05-05T02:01:32.991Z,66.13
2023-05-05T02:02:33.003Z,66.17
2023-05-05T02:03:33.020Z,66.19
2023-05-05T02:04:33.027Z,66.09
2023-05-05T02:05:33.070Z,66.01
2023-05-05T02:06:33.086Z,66.34
2023-05-05T02:07:33.141Z,66.40
2023-05-05T02:08:33.228Z,66.47
2023-05-05T02:09:33.244Z,66.43
2023-05-05T02:10:33.317Z,66.34
2023-05-05T02:11:33.376Z,66.23
2023-05-05T02:12:33.460Z,66.35
2023-05-05T02:13:33.523Z,66.74
2023-05-05T02:14:33.562Z,66.81
2023-05-05T02:15:33.627Z,66.85
2023-05-05T02:16:33.646Z,66.65
2023-05-05T02:17:33.725Z,66.65
2023-05-05T02:18:33.713Z,66.59
2023-05-05T02:19:33.821Z,66.39
2023-05-05T02:20:33.864Z,66.26
2023-05-05T02:21:33.886Z,66.24
2023-05-05T02:22:34.008Z,66.28
2023-05-05T02:23:33.974Z,66.15
2023-05-05T02:24:34.007Z,66.12
2023-05-05T02:25:34.075Z,66.30
2023-05-05T02:26:34.098Z,66.27
2023-05-05T02:27:34.156Z,66.20
2023-05-05T02:28:34.160Z,65.97
2023-05-05T02:29:34.213Z,66.24
2023-05-05T02:30:34.246Z,66.34
2023-05-05T02:31:34.333Z,66.43
2023-05-05T02:32:34.427Z,66.41
2023-05-05T02:33:34.371Z,66.36
2023-05-05T02:34:34.416Z,66.22
2023-05-05T02:35:34.482Z,66.31
2023-05-05T02:36:34.512Z,66.31
2023-05-05T02:37:34.568Z,66.27
2023-05-05T02:38:34.611Z,66.30
2023-05-05T02:39:34.643Z,66.32
2023-05-05T02:40:34.692Z,66.20
2023-05-05T02:41:34.814Z,66.26
2023-05-05T02:42:34.817Z,66.37
2023-05-05T02:43:34.913Z,66.52
2023-05-05T02:44:34.931Z,66.67
2023-05-05T02:45:34.974Z,66.95
2023-05-05T02:46:35.116Z,66.94
2023-05-05T02:47:35.153Z,66.87
2023-05-05T02:48:35.134Z,66.78
2023-05-05T02:49:35.190Z,66.84
2023-05-05T02:50:35.250Z,66.75
2023-05-05T02:51:35.350Z,66.74
2023-05-05T02:52:35.363Z,67.14
2023-05-05T02:53:35.374Z,67.12
2023-05-05T02:54:35.427Z,67.04
2023-05-05T02:55:35.491Z,66.83
2023-05-05T02:56:35.546Z,66.75
2023-05-05T02:57:35.598Z,66.74
2023-05-05T02:58:35.654Z,66.66
2023-05-05T02:59:35.708Z,66.69
2023-05-05T03:00:35.773Z,66.68
2023-05-05T03:01:35.861Z,66.58
2023-05-05T03:02:35.954Z,66.57
2023-05-05T03:03:36.075Z,66.42
2023-05-05T03:04:35.990Z,66.26
2023-05-05T03:05:36.046Z,66.14
2023-05-05T03:06:36.124Z,66.11
2023-05-05T03:07:36.181Z,66.04
2023-05-05T03:08:36.209Z,66.12
2023-05-05T03:09:36.260Z,66.12
2023-05-05T03:10:36.321Z,66.17
2023-05-05T03:11:36.382Z,66.16
2023-05-05T03:12:36.468Z,66.44
2023-05-05T03:13:36.470Z,66.33
2023-05-05T03:14:36.536Z,66.29
2023-05-05T03:15:36.572Z,66.31
2023-05-05T03:16:36.734Z,66.45
2023-05-05T03:17:36.764Z,66.40
2023-05-05T03:18:36.759Z,66.63
2023-05-05T03:19:36.823Z,66.78
2023-05-05T03:20:36.893Z,66.75
2023-05-05T03:21:36.965Z,66.78
2023-05-05T03:22:37.029Z,67.02
2023-05-05T03:23:37.114Z,67.10
2023-05-05T03:24:37.167Z,67.12
2023-05-05T03:25:37.254Z,67.18
2023-05-05T03:26:37.338Z,67.32
2023-05-05T03:27:37.422Z,67.25
2023-05-05T03:28:37.489Z,67.37
2023-05-05T03:29:37.576Z,67.12
2023-05-05T03:30:37.655Z,66.90
2023-05-05T03:31:37.793Z,66.97
2023-05-05T03:32:37.838Z,67.00
2023-05-05T03:33:37.864Z,66.91
2023-05-05T03:34:38.018Z,66.91
2023-05-05T03:35:37.989Z,66.91
2023-05-05T03:36:38.058Z,66.73
2023-05-05T03:37:38.124Z,66.79
2023-05-05T03:38:38.184Z,66.66
2023-05-05T03:39:38.268Z,66.30
2023-05-05T03:40:44.043Z,66.05
2023-05-05T03:41:38.305Z,65.96
2023-05-05T03:42:38.313Z,65.97
2023-05-05T03:43:38.349Z,65.83
2023-05-05T03:44:38.343Z,65.69
2023-05-05T03:45:38.429Z,65.54
2023-05-05T03:46:38.389Z,65.40
2023-05-05T03:47:38.417Z,65.45
2023-05-05T03:48:38.424Z,65.66
2023-05-05T03:49:38.445Z,65.72
2023-05-05T03:50:38.576Z,65.88
2023-05-05T03:51:38.492Z,65.93
2023-05-05T03:52:38.542Z,65.94
2023-05-05T03:53:38.544Z,65.94
2023-05-05T03:54:38.552Z,65.94
2023-05-05T03:55:38.605Z,65.99
2023-05-05T03:56:38.595Z,65.94
2023-05-05T03:57:38.630Z,65.87
2023-05-05T03:58:38.644Z,65.89
2023-05-05T03:59:38.668Z,65.93
2023-05-05T04:00:38.684Z,66.05
2023-05-05T04:01:38.719Z,66.05
2023-05-05T04:02:39.513Z,66.04
2023-05-05T04:03:38.809Z,65.82
2023-05-05T04:04:38.781Z,65.80
2023-05-05T04:05:38.791Z,65.70
2023-05-05T04:06:38.827Z,65.64
2023-05-05T04:07:38.854Z,65.61
2023-05-05T04:08:38.871Z,65.55
2023-05-05T04:09:38.887Z,65.51
2023-05-05T04:10:38.915Z,65.54
2023-05-05T04:11:39.851Z,65.69
2023-05-05T04:12:39.033Z,65.76
2023-05-05T04:13:38.975Z,65.79
2023-05-05T04:14:38.990Z,66.11
2023-05-05T04:15:39.047Z,66.25
2023-05-05T04:16:39.030Z,66.32
2023-05-05T04:17:39.079Z,66.41
2023-05-05T04:18:39.055Z,66.44
2023-05-05T04:19:39.096Z,66.41
2023-05-05T04:20:39.093Z,66.15
2023-05-05T04:21:39.114Z,65.87
2023-05-05T04:22:39.171Z,65.63
2023-05-05T04:23:39.148Z,65.24
2023-05-05T04:24:39.207Z,65.02
2023-05-05T04:25:39.261Z,64.99
2023-05-05T04:26:39.292Z,65.07
2023-05-05T04:27:39.341Z,65.70
2023-05-05T04:28:39.339Z,65.82
2023-05-05T04:29:39.370Z,65.89
2023-05-05T04:30:39.433Z,65.92
2023-05-05T04:31:39.554Z,65.86
2023-05-05T04:32:39.549Z,65.52
2023-05-05T04:33:39.524Z,65.47
2023-05-05T04:34:39.548Z,65.45
2023-05-05T04:35:39.563Z,65.30
2023-05-05T04:36:39.602Z,65.14
2023-05-05T04:37:39.644Z,64.91
2023-05-05T04:38:39.706Z,64.91
2023-05-05T04:39:39.735Z,65.12
2023-05-05T04:40:39.794Z,65.02
2023-05-05T04:41:39.865Z,64.99
2023-05-05T04:42:39.937Z,64.94
2023-05-05T04:43:40.022Z,64.68
2023-05-05T04:44:40.067Z,64.39
2023-05-05T04:45:40.097Z,64.01
2023-05-05T04:46:40.146Z,63.09
2023-05-05T04:47:40.233Z,62.72
2023-05-05T04:48:40.225Z,61.98
2023-05-05T04:49:40.269Z,61.59
2023-05-05T04:50:40.288Z,61.39
2023-05-05T04:51:40.308Z,61.41
2023-05-05T04:52:40.334Z,60.98
2023-05-05T04:53:40.342Z,61.42
2023-05-05T04:54:40.351Z,61.12
2023-05-05T04:55:40.371Z,60.91
2023-05-05T04:56:40.370Z,60.82
2023-05-05T04:57:40.400Z,60.60
2023-05-05T04:58:40.404Z,60.13
2023-05-05T04:59:40.447Z,60.07
2023-05-05T05:00:40.424Z,59.85
2023-05-05T05:01:40.443Z,59.45
2023-05-05T05:02:40.562Z,59.08
2023-05-05T05:03:40.585Z,59.12
2023-05-05T05:04:40.512Z,59.12
2023-05-05T05:05:40.570Z,58.81
2023-05-05T05:06:40.640Z,58.36
2023-05-05T05:07:40.710Z,58.41
2023-05-05T05:08:40.716Z,59.93
2023-05-05T05:09:40.762Z,60.03
2023-05-05T05:10:40.813Z,59.98
2023-05-05T05:11:40.871Z,59.71
2023-05-05T05:12:41.387Z,59.58
2023-05-05T05:13:40.960Z,59.48
2023-05-05T05:14:40.993Z,59.12
2023-05-05T05:15:41.801Z,58.97
2023-05-05T05:16:41.128Z,58.51
2023-05-05T05:17:41.158Z,58.15
2023-05-05T05:18:41.149Z,58.09
2023-05-05T05:19:41.164Z,58.32
2023-05-05T05:20:41.200Z,58.49
2023-05-05T05:21:41.353Z,58.85
2023-05-05T05:22:41.280Z,59.07
2023-05-05T05:23:41.299Z,59.03
2023-05-05T05:24:41.346Z,58.58
2023-05-05T05:25:41.456Z,58.94
2023-05-05T05:26:41.421Z,58.53
2023-05-05T05:27:41.872Z,58.80
2023-05-05T05:28:41.859Z,58.74
2023-05-05T05:29:41.521Z,58.90
2023-05-05T05:30:41.554Z,58.99
2023-05-05T05:31:41.951Z,58.87
2023-05-05T05:32:41.688Z,58.60
2023-05-05T05:33:41.681Z,58.32
2023-05-05T05:34:41.701Z,58.41
2023-05-05T05:35:41.760Z,58.64
2023-05-05T05:36:41.869Z,58.76
2023-05-05T05:37:41.824Z,58.89
2023-05-05T05:38:41.832Z,58.92
2023-05-05T05:39:43.545Z,59.21
2023-05-05T05:40:41.860Z,59.85
2023-05-05T05:41:41.912Z,59.57
2023-05-05T05:42:41.860Z,59.51
2023-05-05T05:43:41.807Z,59.40
2023-05-05T05:44:41.758Z,59.47
2023-05-05T05:45:41.794Z,59.28
2023-05-05T05:46:41.888Z,59.04
2023-05-05T05:47:41.782Z,59.05
2023-05-05T05:48:41.662Z,59.05
2023-05-05T05:49:41.631Z,58.91
2023-05-05T05:50:42.328Z,59.10
2023-05-05T05:51:57.465Z,58.53
2023-05-05T05:52:41.884Z,58.58
2023-05-05T05:53:41.516Z,58.68
2023-05-05T05:54:41.492Z,58.39
2023-05-05T05:56:42.237Z,58.10
2023-05-05T05:57:44.608Z,57.84
2023-05-05T05:58:41.383Z,58.18
2023-05-05T05:59:41.375Z,57.64
2023-05-05T06:00:56.993Z,57.37
2023-05-05T06:02:41.342Z,56.83
2023-05-05T06:04:56.858Z,56.28
2023-05-05T06:05:48.590Z,56.68
2023-05-05T06:06:41.881Z,56.60
2023-05-05T06:07:41.125Z,55.89
2023-05-05T06:08:41.362Z,55.85
2023-05-05T06:09:42.041Z,55.67
2023-05-05T06:10:41.018Z,55.47
2023-05-05T06:11:41.876Z,55.05
2023-05-05T06:12:42.040Z,54.62
2023-05-05T06:15:48.341Z,54.08
2023-05-05T06:16:40.992Z,54.19
2023-05-05T06:17:40.836Z,54.18
2023-05-05T06:18:40.758Z,54.04
2023-05-05T06:19:40.803Z,55.17
2023-05-05T06:20:40.788Z,55.98
2023-05-05T06:21:41.181Z,57.01
2023-05-05T06:22:41.652Z,57.17
2023-05-05T06:23:41.877Z,57.14
2023-05-05T06:24:40.666Z,56.34
2023-05-05T06:25:40.695Z,55.86
2023-05-05T06:26:40.725Z,55.38
2023-05-05T06:27:41.086Z,55.35
2023-05-05T06:28:40.682Z,55.87
2023-05-05T06:29:40.587Z,55.91
2023-05-05T06:30:40.549Z,56.23
2023-05-05T06:31:40.659Z,56.56
2023-05-05T06:32:40.627Z,56.52
2023-05-05T06:33:40.599Z,56.08
2023-05-05T06:34:40.507Z,55.70
2023-05-05T06:35:40.461Z,55.22
2023-05-05T06:36:40.514Z,54.29
2023-05-05T06:37:40.407Z,54.55
2023-05-05T06:38:40.943Z,54.30
2023-05-05T06:39:41.369Z,54.07
2023-05-05T06:40:40.355Z,53.80
2023-05-05T06:41:40.372Z,53.56
2023-05-05T06:42:40.412Z,53.24
2023-05-05T06:43:41.341Z,53.17
2023-05-05T06:44:40.546Z,53.06
2023-05-05T06:45:41.951Z,52.94
2023-05-05T06:46:40.464Z,53.13
2023-05-05T06:47:40.442Z,53.25
2023-05-05T06:48:40.857Z,53.49
2023-05-05T06:49:40.329Z,53.43
2023-05-05T06:50:40.269Z,53.20
2023-05-05T06:51:42.695Z,53.25
2023-05-05T06:52:40.406Z,53.52
2023-05-05T12:17:52.790Z,31.03
2023-05-05T12:18:53.504Z,30.47
2023-05-05T12:19:53.486Z,31.42
2023-05-05T12:20:53.463Z,32.15
2023-05-05T12:21:53.462Z,31.77
2023-05-05T12:22:53.480Z,33.19
2023-05-05T12:23:53.495Z,34.07
2023-05-05T12:24:54.944Z,36.00
2023-05-05T12:25:53.683Z,35.19
2023-05-05T12:26:53.714Z,35.93
2023-05-05T12:27:53.767Z,33.78
2023-05-05T12:28:53.841Z,32.10
2023-05-05T12:29:53.872Z,31.05
2023-05-05T12:30:55.060Z,31.20
2023-05-05T12:31:53.925Z,33.14
2023-05-05T12:32:53.950Z,32.03
2023-05-05T12:33:54.016Z,33.25
2023-05-05T12:34:53.970Z,33.01
2023-05-05T12:35:53.988Z,32.21
2023-05-05T12:36:54.023Z,32.97
2023-05-05T12:37:54.048Z,33.83
2023-05-05T12:38:54.090Z,31.88
2023-05-05T12:39:54.205Z,31.65
2023-05-05T12:40:54.186Z,31.64
2023-05-05T12:41:54.272Z,33.57
2023-05-05T12:42:54.295Z,31.68
2023-05-05T12:43:54.418Z,32.94
2023-05-05T12:44:54.389Z,30.66
2023-05-05T12:45:54.487Z,30.96
2023-05-05T12:46:56.027Z,30.27
2023-05-05T12:47:54.681Z,30.94
2023-05-05T12:48:54.684Z,33.17
2023-05-05T12:49:54.819Z,32.56
2023-05-05T12:50:54.803Z,30.85
2023-05-05T12:51:54.837Z,31.93
2023-05-05T12:52:54.894Z,31.00
2023-05-05T12:53:54.958Z,32.45
2023-05-05T12:54:55.491Z,32.41
2023-05-05T12:55:55.052Z,31.04
2023-05-05T12:56:55.104Z,32.11
2023-05-05T12:57:55.103Z,30.90
2023-05-05T12:58:55.143Z,29.38
2023-05-05T12:59:55.496Z,29.56
2023-05-05T13:00:55.333Z,32.10
2023-05-05T13:01:55.553Z,32.06
2023-05-05T13:02:55.468Z,33.84
2023-05-05T13:03:55.489Z,33.00
2023-05-05T13:04:55.504Z,32.10
2023-05-05T13:05:55.631Z,33.80
2023-05-05T13:06:55.572Z,32.98
2023-05-05T13:07:55.596Z,30.86
2023-05-05T13:08:55.661Z,30.42
2023-05-05T13:09:56.033Z,30.72
2023-05-05T13:10:55.747Z,29.52
2023-05-05T13:11:55.815Z,30.08
2023-05-05T13:12:56.062Z,30.70
2023-05-05T13:13:55.907Z,31.00
2023-05-05T13:14:55.958Z,31.57
2023-05-05T13:15:56.033Z,30.92
2023-05-05T13:16:56.075Z,32.09
2023-05-05T13:17:56.220Z,33.32
2023-05-05T13:18:56.220Z,33.11
2023-05-05T13:19:56.303Z,31.63
2023-05-05T13:20:56.348Z,33.03
2023-05-05T13:21:56.474Z,33.51
2023-05-05T13:22:56.487Z,31.86
2023-05-05T13:24:05.124Z,31.40
2023-05-05T13:24:56.602Z,31.39
2023-05-05T13:25:56.997Z,31.79
2023-05-05T13:26:56.681Z,32.25
2023-05-05T13:27:56.722Z,34.33
2023-05-05T13:28:56.750Z,35.40
2023-05-05T13:29:56.786Z,33.06
2023-05-05T13:30:56.829Z,33.29
2023-05-05T13:31:56.869Z,34.96
2023-05-05T13:32:56.852Z,34.27
2023-05-05T13:33:56.875Z,33.13
2023-05-05T13:34:56.907Z,31.83
2023-05-05T13:35:56.917Z,30.33
2023-05-05T13:36:56.988Z,30.57
2023-05-05T13:37:57.066Z,30.40
2023-05-05T13:38:57.005Z,33.44
2023-05-05T13:39:57.032Z,33.77
2023-05-05T13:40:57.081Z,32.18
2023-05-05T13:41:57.101Z,32.12
2023-05-05T13:42:57.172Z,32.63
2023-05-05T13:43:57.228Z,33.08
2023-05-05T13:44:57.262Z,31.15
2023-05-05T13:46:05.542Z,30.25
2023-05-05T13:46:57.383Z,30.23
2023-05-05T13:47:57.378Z,30.89
2023-05-05T13:48:57.512Z,31.47
2023-05-05T13:49:57.378Z,30.02
2023-05-05T13:50:57.385Z,29.68
2023-05-05T13:51:57.406Z,30.91
2023-05-05T13:52:57.408Z,29.89
2023-05-05T13:53:57.573Z,30.20
2023-05-05T13:54:57.460Z,29.69
2023-05-05T13:55:57.492Z,29.46
2023-05-05T13:56:57.507Z,29.82
2023-05-05T13:57:57.515Z,29.86
2023-05-05T13:58:57.540Z,29.22
2023-05-05T13:59:57.593Z,29.89
2023-05-05T14:00:58.218Z,30.27
2023-05-05T14:01:57.594Z,30.42
2023-05-05T14:02:57.625Z,30.61
2023-05-05T14:03:58.000Z,30.99
2023-05-05T14:04:57.634Z,30.53
2023-05-05T14:05:58.060Z,31.18
2023-05-05T14:06:57.649Z,31.36
2023-05-05T14:07:57.662Z,29.49
2023-05-05T14:08:58.017Z,29.40
2023-05-05T14:09:57.804Z,28.73
2023-05-05T14:10:58.019Z,30.38
2023-05-05T14:11:57.727Z,30.68
2023-05-05T14:12:57.793Z,28.63
2023-05-05T14:13:57.772Z,27.69
2023-05-05T14:14:57.778Z,29.25
2023-05-05T14:15:57.838Z,30.02
2023-05-05T14:16:57.882Z,29.67
2023-05-05T14:17:57.882Z,29.16
2023-05-05T14:18:57.853Z,29.05
2023-05-05T14:19:57.884Z,28.88
2023-05-05T14:20:57.921Z,28.85
2023-05-05T14:21:57.928Z,29.14
2023-05-05T14:22:57.946Z,29.52
2023-05-05T14:23:58.005Z,30.61
2023-05-05T14:24:58.016Z,30.54
2023-05-05T14:25:58.196Z,30.92
2023-05-05T14:26:58.059Z,30.45
2023-05-05T14:27:58.125Z,30.27
2023-05-05T14:28:58.175Z,29.37
2023-05-05T14:29:58.234Z,29.04
2023-05-05T14:30:58.295Z,29.01
2023-05-05T14:31:58.334Z,29.11
2023-05-05T14:32:58.377Z,28.61
2023-05-05T14:33:58.526Z,29.03
2023-05-05T14:34:58.460Z,29.32
2023-05-05T14:35:58.531Z,29.41
2023-05-05T14:36:58.644Z,29.60
2023-05-05T14:37:58.641Z,28.96
2023-05-05T14:38:59.043Z,28.54
2023-05-05T14:39:58.771Z,28.38
2023-05-05T14:40:58.889Z,29.50
2023-05-05T14:41:58.972Z,30.49
2023-05-05T14:42:58.936Z,30.38
2023-05-05T14:43:59.538Z,30.39
2023-05-05T14:44:59.041Z,30.10
2023-05-05T14:45:59.155Z,29.87
2023-05-05T14:46:59.529Z,29.39
2023-05-05T14:47:59.341Z,29.79
2023-05-05T14:48:59.306Z,30.06
2023-05-05T14:49:59.340Z,30.47
2023-05-05T14:50:59.436Z,30.55
2023-05-05T14:51:59.387Z,30.44
2023-05-05T14:52:59.451Z,30.71
2023-05-05T14:53:59.507Z,31.36
2023-05-05T14:54:59.575Z,30.38
2023-05-05T14:55:59.657Z,29.54
2023-05-05T14:56:59.762Z,31.04
2023-05-05T14:57:59.932Z,31.36
2023-05-05T14:58:59.914Z,30.57
2023-05-05T15:00:00.009Z,30.50
2023-05-05T15:01:00.071Z,30.96
2023-05-05T15:02:00.268Z,31.77
2023-05-05T15:03:00.268Z,31.42
2023-05-05T15:04:00.339Z,32.10
2023-05-05T15:05:00.300Z,32.39
2023-05-05T15:06:00.349Z,33.06
2023-05-05T15:07:00.396Z,32.75
2023-05-05T15:08:00.454Z,32.14
2023-05-05T15:09:00.563Z,31.90
2023-05-05T15:10:00.608Z,32.09
2023-05-05T15:11:00.668Z,32.11
2023-05-05T15:12:00.723Z,32.09
2023-05-05T15:13:00.853Z,33.68
2023-05-05T15:14:00.894Z,34.22
2023-05-05T15:15:00.908Z,33.50
2023-05-05T15:16:01.054Z,33.53
2023-05-05T15:17:01.096Z,33.68
2023-05-05T15:18:01.248Z,33.66
2023-05-05T15:19:01.223Z,33.05
2023-05-05T15:20:01.309Z,33.07
2023-05-05T15:21:01.360Z,33.34
2023-05-05T15:22:01.460Z,33.37
2023-05-05T15:23:01.527Z,33.45
2023-05-05T15:24:01.596Z,33.28
2023-05-05T15:25:01.657Z,33.41
2023-05-05T15:26:01.750Z,33.64
2023-05-05T15:27:01.810Z,33.36
2023-05-05T15:28:01.877Z,34.17
2023-05-05T15:29:01.928Z,33.58
2023-05-05T15:30:02.053Z,33.54
2023-05-05T15:31:02.050Z,34.31
2023-05-05T15:32:02.147Z,33.40
2023-05-05T15:33:02.298Z,34.12
2023-05-05T15:34:02.308Z,34.27
2023-05-05T15:35:02.399Z,33.83
2023-05-05T15:36:02.452Z,34.67
2023-05-05T15:37:02.563Z,34.71
2023-05-05T15:38:02.643Z,33.79
2023-05-05T15:39:02.767Z,34.14
2023-05-05T15:40:02.985Z,35.25
2023-05-05T15:41:02.981Z,35.24
2023-05-05T15:42:03.062Z,34.98
2023-05-05T15:43:03.147Z,33.78
2023-05-05T15:44:03.192Z,35.11
2023-05-05T15:45:03.290Z,36.19
2023-05-05T15:46:03.377Z,35.97
2023-05-05T15:47:03.451Z,34.94
2023-05-05T15:48:03.521Z,34.59
2023-05-05T15:49:03.543Z,34.33
2023-05-05T15:50:03.628Z,33.98
2023-05-05T15:51:03.695Z,34.12
2023-05-05T15:52:03.748Z,34.34
2023-05-05T15:53:03.814Z,34.32
2023-05-05T15:54:03.950Z,34.80
2023-05-05T15:55:04.039Z,34.47
2023-05-05T15:56:04.101Z,34.45
2023-05-05T15:57:04.176Z,34.39
2023-05-05T15:58:04.264Z,35.05
2023-05-05T15:59:04.382Z,35.05
2023-05-05T16:00:04.432Z,35.90
2023-05-05T16:01:04.549Z,35.49
2023-05-05T16:02:04.713Z,35.19
2023-05-05T16:03:04.754Z,35.70
2023-05-05T16:04:04.736Z,35.77
2023-05-05T16:05:04.884Z,36.51
2023-05-05T16:06:04.823Z,35.84
2023-05-05T16:07:04.877Z,35.68
2023-05-05T16:08:04.939Z,36.11
2023-05-05T16:09:04.988Z,36.35
2023-05-05T16:10:05.027Z,36.89
2023-05-05T16:11:05.098Z,35.82
2023-05-05T16:12:05.190Z,36.03
2023-05-05T16:13:05.294Z,35.78
2023-05-05T16:14:05.377Z,35.98
2023-05-05T16:15:05.513Z,36.63
2023-05-05T16:16:05.571Z,37.16
2023-05-05T16:17:05.692Z,37.40
2023-05-05T16:18:05.926Z,37.10
2023-05-05T16:19:05.871Z,37.79
2023-05-05T16:20:06.001Z,37.78
2023-05-05T16:21:06.072Z,37.47
2023-05-05T16:22:06.153Z,37.63
2023-05-05T16:23:06.253Z,38.06
2023-05-05T16:24:06.326Z,37.50
2023-05-05T16:25:06.552Z,37.27
2023-05-05T16:26:06.480Z,37.19
2023-05-05T16:27:06.551Z,38.16
2023-05-05T16:28:06.645Z,36.97
2023-05-05T16:29:06.710Z,37.67
2023-05-05T16:30:06.839Z,37.18
2023-05-05T16:31:06.955Z,37.60
2023-05-05T16:32:07.058Z,37.67
2023-05-05T16:33:07.172Z,37.95
2023-05-05T16:34:07.309Z,38.00
2023-05-05T16:35:07.559Z,37.81
2023-05-05T16:36:07.321Z,37.69
2023-05-05T16:37:07.402Z,37.87
2023-05-05T16:38:07.471Z,37.91
2023-05-05T16:39:07.571Z,38.43
2023-05-05T16:40:08.528Z,38.31
2023-05-05T16:41:07.754Z,38.44
2023-05-05T16:42:07.803Z,38.15
2023-05-05T16:43:07.917Z,38.85
2023-05-05T16:44:07.987Z,38.79
2023-05-05T16:45:09.042Z,38.67
2023-05-05T16:46:08.129Z,38.99
2023-05-05T16:47:08.177Z,39.89
2023-05-05T16:48:09.237Z,40.12
2023-05-05T16:49:08.864Z,39.15
2023-05-05T16:50:08.654Z,39.52
2023-05-05T16:51:08.632Z,38.98
2023-05-05T16:52:08.724Z,39.05
2023-05-05T16:53:08.845Z,39.36
2023-05-05T16:54:08.969Z,40.43
2023-05-05T16:55:09.281Z,40.23
2023-05-05T16:56:09.211Z,40.40
2023-05-05T16:57:09.317Z,41.02
2023-05-05T16:58:09.440Z,40.60
2023-05-05T16:59:09.589Z,40.98
2023-05-05T17:00:09.620Z,41.08
2023-05-05T17:01:09.765Z,41.31
2023-05-05T17:02:09.862Z,40.71
2023-05-05T17:03:09.848Z,41.24
2023-05-05T17:04:09.943Z,40.99
2023-05-05T17:05:10.328Z,41.81
2023-05-05T17:06:10.188Z,42.07
2023-05-05T17:07:10.196Z,41.93
2023-05-05T17:08:10.304Z,41.79
2023-05-05T17:09:10.422Z,42.16
2023-05-05T17:10:10.548Z,42.26
2023-05-05T17:11:11.640Z,41.58
2023-05-05T17:12:10.806Z,42.09
2023-05-05T17:13:10.947Z,42.57
2023-05-05T17:14:11.005Z,42.47
2023-05-05T17:15:11.168Z,42.46
2023-05-05T17:16:11.188Z,42.66
2023-05-05T17:17:11.297Z,42.40
2023-05-05T17:18:11.464Z,42.75
2023-05-05T17:19:11.530Z,42.15
2023-05-05T17:20:11.665Z,42.07
2023-05-05T17:21:11.762Z,42.17
2023-05-05T17:22:11.976Z,42.76
2023-05-05T17:23:11.945Z,42.53
2023-05-05T17:24:12.066Z,42.92
2023-05-05T17:25:12.327Z,43.00
2023-05-05T17:26:12.278Z,43.36
2023-05-05T17:28:30.616Z,43.73
2023-05-05T17:29:31.603Z,43.68
2023-05-05T17:30:31.591Z,43.43
2023-05-05T17:31:31.598Z,43.46
2023-05-05T17:32:31.592Z,43.80
2023-05-05T17:33:31.578Z,43.81
2023-05-05T17:34:31.577Z,43.72
2023-05-05T17:35:31.581Z,43.95
2023-05-05T17:36:31.557Z,43.94
2023-05-05T17:37:31.631Z,44.08
2023-05-05T17:38:31.522Z,44.15
2023-05-05T17:39:31.509Z,44.57
2023-05-05T17:40:31.751Z,44.51
2023-05-05T17:41:32.300Z,43.97
2023-05-05T17:42:32.163Z,44.32
2023-05-05T17:43:31.736Z,44.67
2023-05-05T17:44:32.150Z,44.76
2023-05-05T17:45:31.912Z,44.56
2023-05-05T17:46:31.934Z,44.28
2023-05-05T17:47:31.869Z,44.31
2023-05-05T17:48:31.499Z,44.44
2023-05-05T17:49:31.462Z,44.47
2023-05-05T17:50:31.487Z,44.41
2023-05-05T17:51:31.471Z,44.45
2023-05-05T17:52:31.489Z,44.59
2023-05-05T17:53:31.628Z,44.81
2023-05-05T17:54:31.472Z,44.56
2023-05-05T17:55:31.483Z,44.46
2023-05-05T17:56:31.469Z,44.43
2023-05-05T17:57:31.476Z,44.46
2023-05-05T17:58:31.464Z,44.48
2023-05-05T17:59:31.469Z,44.51
2023-05-05T18:00:31.467Z,44.64
2023-05-05T18:01:31.529Z,44.60
2023-05-05T18:02:31.529Z,44.42
2023-05-05T18:03:31.800Z,44.79
2023-05-05T18:04:31.576Z,45.45
2023-05-05T18:05:31.643Z,45.26
2023-05-05T18:06:31.684Z,45.11
2023-05-05T18:07:31.727Z,44.91
2023-05-05T18:08:31.762Z,44.57
2023-05-05T18:09:31.919Z,44.88
2023-05-05T18:10:31.781Z,44.99
2023-05-05T18:11:31.789Z,45.22
2023-05-05T18:12:31.841Z,45.08
2023-05-05T18:13:31.812Z,45.07
2023-05-05T18:14:31.829Z,44.75
2023-05-05T18:15:31.914Z,44.81
2023-05-05T18:16:31.885Z,44.92
2023-05-05T18:17:31.926Z,44.87
2023-05-05T18:18:32.025Z,45.34
2023-05-05T18:19:32.067Z,44.93
2023-05-05T18:20:32.085Z,44.50
2023-05-05T18:21:32.114Z,44.85
2023-05-05T18:22:32.129Z,44.98
2023-05-05T18:23:32.139Z,44.91